Richford, Vermont
Current Conditions -  °F | °C
As of 8:15 AM on Wednesday 22 Oct 2014 (Local Time) from KFSO Reporting Station
Drizzle Drizzle  
Wind Chill: 38°   Ceiling: 7000
Heat Index: 44°   Visibility: 7mi
Dew Point: 43°   Wind: 10mph
Humidity: 97%   Direction: 360°N
Pressure: 30.2"   Gusts: NA
Location:  45°N, 72.67°W
Report Text: KFSO 221215Z AUTO 36009KT 7SM DZ SCT065 OVC070 06/06 A3020 RMK AO2 T00640059
Loading
Personal Weather Stations






























Interactive Weather Map
Tropical Storm Tracking
New forecast layout! Learn more

10-Day Weather Forecast

Advertisements
Track Severe Weather on mobile